createdAt,value
2022-09-28T00:02:21.116Z,12.73
2022-09-28T00:04:53.535Z,12.70
2022-09-28T00:07:26.059Z,12.65
2022-09-28T00:09:58.186Z,12.61
2022-09-28T00:12:31.584Z,12.56
2022-09-28T00:15:04.474Z,12.52
2022-09-28T00:17:36.889Z,12.53
2022-09-28T00:20:10.625Z,12.47
2022-09-28T00:22:42.992Z,12.45
2022-09-28T00:25:17.033Z,12.41
2022-09-28T00:27:54.007Z,12.41
2022-09-28T00:30:26.337Z,12.39
2022-09-28T00:32:58.808Z,12.36
2022-09-28T00:35:31.487Z,12.35
2022-09-28T00:38:06.050Z,12.31
2022-09-28T00:40:40.771Z,12.29
2022-09-28T00:43:21.890Z,12.29
2022-09-28T00:46:00.303Z,12.23
2022-09-28T00:48:37.443Z,12.28
2022-09-28T00:51:13.708Z,12.23
2022-09-28T00:53:46.621Z,12.21
2022-09-28T00:56:25.194Z,12.18
2022-09-28T00:58:59.039Z,12.16
2022-09-28T01:02:27.847Z,12.13
2022-09-28T01:05:02.132Z,12.11
2022-09-28T01:07:36.105Z,12.04
2022-09-28T01:10:09.450Z,12.03
2022-09-28T01:12:42.651Z,12.00
2022-09-28T01:15:16.484Z,11.96
2022-09-28T01:18:00.983Z,11.92
2022-09-28T01:21:00.161Z,11.90
2022-09-28T01:23:55.032Z,11.85
2022-09-28T01:26:55.265Z,11.82
2022-09-28T01:29:38.803Z,11.81
2022-09-28T01:32:19.622Z,11.79
2022-09-28T01:34:59.590Z,11.78
2022-09-28T01:37:37.076Z,11.79
2022-09-28T01:40:13.267Z,11.76
2022-09-28T01:42:47.981Z,11.74
2022-09-28T01:45:21.235Z,11.69
2022-09-28T01:47:57.415Z,11.67
2022-09-28T01:50:35.372Z,11.64
2022-09-28T01:53:13.481Z,11.60
2022-09-28T01:55:50.415Z,11.59
2022-09-28T01:58:31.147Z,11.57
2022-09-28T02:01:10.055Z,11.56
2022-09-28T02:03:49.301Z,11.54
2022-09-28T02:06:32.066Z,11.55
2022-09-28T02:09:11.626Z,11.54
2022-09-28T02:11:53.704Z,11.51
2022-09-28T02:14:26.529Z,11.47
2022-09-28T02:16:59.481Z,11.47
2022-09-28T02:19:35.017Z,11.46
2022-09-28T02:22:24.482Z,11.42
2022-09-28T02:25:00.348Z,11.42
2022-09-28T02:27:39.517Z,11.39
2022-09-28T02:30:13.510Z,11.41
2022-09-28T02:32:51.064Z,11.38
2022-09-28T02:35:23.300Z,11.39
2022-09-28T02:37:57.193Z,11.40
2022-09-28T02:40:33.799Z,11.41
2022-09-28T02:43:15.506Z,11.42
2022-09-28T02:46:12.887Z,11.42
2022-09-28T02:49:20.166Z,11.34
2022-09-28T02:52:11.757Z,11.42
2022-09-28T02:55:07.751Z,11.42
2022-09-28T02:57:52.994Z,11.41
2022-09-28T03:00:26.808Z,11.40
2022-09-28T03:03:10.901Z,11.39
2022-09-28T03:06:00.455Z,11.27
2022-09-28T03:08:39.673Z,11.32
2022-09-28T03:11:17.923Z,11.30
2022-09-28T03:13:52.814Z,11.26
2022-09-28T03:16:27.786Z,11.25
2022-09-28T03:19:00.125Z,11.22
2022-09-28T03:21:32.243Z,11.20
2022-09-28T03:24:06.095Z,11.17
2022-09-28T03:26:38.812Z,11.14
2022-09-28T03:29:11.335Z,11.14
2022-09-28T03:31:44.456Z,11.07
2022-09-28T03:34:17.389Z,11.08
2022-09-28T03:36:49.641Z,11.05
2022-09-28T03:39:21.891Z,11.00
2022-09-28T03:41:54.184Z,10.96
2022-09-28T03:44:26.840Z,10.91
2022-09-28T03:46:59.275Z,10.92
2022-09-28T03:49:31.447Z,10.89
2022-09-28T03:52:04.551Z,10.87
2022-09-28T03:54:37.288Z,10.86
2022-09-28T03:57:10.271Z,10.85
2022-09-28T03:59:43.015Z,10.75
2022-09-28T04:02:15.655Z,10.85
2022-09-28T04:04:48.077Z,10.82
2022-09-28T04:07:20.226Z,10.81
2022-09-28T04:11:02.106Z,10.86
2022-09-28T04:13:35.164Z,10.82
2022-09-28T04:16:08.208Z,10.85
2022-09-28T04:18:40.988Z,10.84
2022-09-28T04:21:21.011Z,10.83
2022-09-28T04:24:01.906Z,10.84
2022-09-28T04:26:34.295Z,10.85
2022-09-28T04:29:19.217Z,10.86
2022-09-28T04:32:01.495Z,10.85
2022-09-28T04:34:43.748Z,10.84
2022-09-28T04:37:16.687Z,10.83
2022-09-28T04:39:49.708Z,10.81
2022-09-28T04:42:29.593Z,10.77
2022-09-28T04:45:02.342Z,10.78
2022-09-28T04:47:34.529Z,10.76
2022-09-28T04:50:36.113Z,10.76
2022-09-28T04:53:11.934Z,10.75
2022-09-28T04:55:45.392Z,10.74
2022-09-28T04:58:18.656Z,10.72
2022-09-28T05:00:54.770Z,10.75
2022-09-28T05:03:46.228Z,10.65
2022-09-28T05:06:42.711Z,10.74
2022-09-28T05:09:16.251Z,10.64
2022-09-28T05:11:53.372Z,10.79
2022-09-28T05:14:28.897Z,10.84
2022-09-28T05:17:01.667Z,10.87
2022-09-28T05:19:35.060Z,10.91
2022-09-28T05:22:14.988Z,10.92
2022-09-28T05:24:50.894Z,10.94
2022-09-28T05:27:26.974Z,10.94
2022-09-28T05:30:12.678Z,11.00
2022-09-28T05:33:17.623Z,11.05
2022-09-28T05:36:01.578Z,11.05
2022-09-28T05:38:36.607Z,11.12
2022-09-28T05:41:09.181Z,11.06
2022-09-28T05:43:44.217Z,11.21
2022-09-28T05:46:16.256Z,11.24
2022-09-28T05:48:49.089Z,11.24
2022-09-28T05:51:22.816Z,11.23
2022-09-28T05:54:05.442Z,11.30
2022-09-28T05:56:38.648Z,11.32
2022-09-28T05:59:16.033Z,11.36
2022-09-28T06:01:48.626Z,11.30
2022-09-28T06:04:21.205Z,11.27
2022-09-28T06:06:53.642Z,11.40
2022-09-28T06:09:26.915Z,11.35
2022-09-28T06:12:20.158Z,11.41
2022-09-28T06:15:00.825Z,11.37
2022-09-28T06:17:33.377Z,11.39
2022-09-28T06:20:41.104Z,11.40
2022-09-28T06:23:18.165Z,11.40
2022-09-28T06:25:50.314Z,11.38
2022-09-28T06:28:22.856Z,11.38
2022-09-28T06:30:56.417Z,11.40
2022-09-28T06:33:28.770Z,11.49
2022-09-28T06:36:03.387Z,11.34
2022-09-28T06:38:35.547Z,11.41
2022-09-28T06:41:12.707Z,11.51
2022-09-28T06:43:46.530Z,11.57
2022-09-28T06:46:19.004Z,11.60
2022-09-28T06:49:10.330Z,11.66
2022-09-28T06:52:18.027Z,11.64
2022-09-28T06:55:09.363Z,11.72
2022-09-28T06:57:49.547Z,11.82
2022-09-28T07:00:22.169Z,11.83
2022-09-28T07:02:54.736Z,11.71
2022-09-28T07:05:49.457Z,11.83
2022-09-28T07:08:40.289Z,11.90
2022-09-28T07:11:33.052Z,11.90
2022-09-28T07:14:30.753Z,11.96
2022-09-28T07:17:13.726Z,12.00
2022-09-28T07:19:52.747Z,12.07
2022-09-28T07:22:38.008Z,12.17
2022-09-28T07:25:14.422Z,12.24
2022-09-28T07:27:47.200Z,12.31
2022-09-28T07:30:36.577Z,12.45
2022-09-28T07:33:32.897Z,12.60
2022-09-28T07:36:20.995Z,12.58
2022-09-28T07:38:53.594Z,12.62
2022-09-28T07:41:32.878Z,12.57
2022-09-28T07:44:07.640Z,12.69
2022-09-28T07:46:41.315Z,12.79
2022-09-28T07:49:24.866Z,12.76
2022-09-28T07:52:15.725Z,12.70
2022-09-28T07:55:10.155Z,12.89
2022-09-28T07:58:08.394Z,12.93
2022-09-28T08:01:01.232Z,12.86
2022-09-28T08:03:35.476Z,12.74
2022-09-28T08:06:11.200Z,12.98
2022-09-28T08:08:44.930Z,13.01
2022-09-28T08:11:20.155Z,13.03
2022-09-28T08:14:33.846Z,13.12
2022-09-28T08:17:29.043Z,13.03
2022-09-28T08:20:22.250Z,13.20
2022-09-28T08:22:54.856Z,13.35
2022-09-28T08:25:27.246Z,13.39
2022-09-28T08:28:00.200Z,13.40
2022-09-28T08:30:33.964Z,13.31
2022-09-28T08:33:38.598Z,13.60
2022-09-28T08:36:36.786Z,13.61
2022-09-28T08:39:12.839Z,13.67
2022-09-28T08:42:28.484Z,13.69
2022-09-28T08:45:27.446Z,13.65
2022-09-28T08:49:01.268Z,13.88
2022-09-28T08:52:05.198Z,13.91
2022-09-28T08:55:03.394Z,13.92
2022-09-28T08:57:46.942Z,14.07
2022-09-28T09:00:23.973Z,14.23
2022-09-28T09:02:56.754Z,14.27
2022-09-28T09:05:48.469Z,14.14
2022-09-28T09:08:43.527Z,14.21
2022-09-28T09:11:30.289Z,14.29
2022-09-28T09:14:22.053Z,14.34
2022-09-28T09:17:00.818Z,14.29
2022-09-28T09:19:55.857Z,14.26
2022-09-28T09:22:42.499Z,14.47
2022-09-28T09:25:24.608Z,14.54
2022-09-28T09:28:22.289Z,14.74
2022-09-28T09:31:08.402Z,14.78
2022-09-28T09:34:15.914Z,14.79
2022-09-28T09:37:10.518Z,14.99
2022-09-28T09:40:16.424Z,14.92
2022-09-28T09:43:19.177Z,15.07
2022-09-28T09:46:12.873Z,15.16
2022-09-28T09:49:13.574Z,15.30
2022-09-28T09:51:51.879Z,15.49
2022-09-28T09:54:30.547Z,15.49
2022-09-28T09:57:09.097Z,15.49
2022-09-28T10:00:16.730Z,15.67
2022-09-28T10:03:02.407Z,15.76
2022-09-28T10:05:48.561Z,15.98
2022-09-28T10:08:23.898Z,15.97
2022-09-28T10:11:08.872Z,16.14
2022-09-28T10:13:44.743Z,15.98
2022-09-28T10:16:37.425Z,15.90
2022-09-28T10:19:15.255Z,15.89
2022-09-28T10:22:12.604Z,15.95
2022-09-28T10:24:47.669Z,15.94
2022-09-28T10:27:23.154Z,15.69
2022-09-28T10:29:59.911Z,15.59
2022-09-28T10:32:43.930Z,15.43
2022-09-28T10:35:24.299Z,15.50
2022-09-28T10:38:04.716Z,15.51
2022-09-28T10:41:00.145Z,15.70
2022-09-28T10:43:51.281Z,15.76
2022-09-28T10:46:25.839Z,15.82
2022-09-28T10:49:03.894Z,15.77
2022-09-28T10:51:49.741Z,15.89
2022-09-28T10:54:28.373Z,16.06
2022-09-28T10:57:02.720Z,15.92
2022-09-28T10:59:43.737Z,15.77
2022-09-28T11:02:36.709Z,15.80
2022-09-28T11:05:27.975Z,15.79
2022-09-28T11:08:07.587Z,15.82
2022-09-28T11:11:15.316Z,15.78
2022-09-28T11:13:54.758Z,15.78
2022-09-28T11:16:31.877Z,15.87
2022-09-28T11:19:23.512Z,15.79
2022-09-28T11:21:55.852Z,15.72
2022-09-28T11:24:34.747Z,15.81
2022-09-28T11:27:20.286Z,15.86
2022-09-28T11:29:59.087Z,15.70
2022-09-28T11:32:42.433Z,15.65
2022-09-28T11:35:47.019Z,15.71
2022-09-28T11:38:47.589Z,15.72
2022-09-28T11:41:51.813Z,15.70
2022-09-28T11:44:40.167Z,15.81
2022-09-28T11:47:38.727Z,15.75
2022-09-28T11:50:24.142Z,15.74
2022-09-28T11:53:44.919Z,15.74
2022-09-28T11:56:32.409Z,15.86
2022-09-28T11:59:11.998Z,15.86
2022-09-28T12:01:51.627Z,15.86
2022-09-28T12:04:46.670Z,15.89
2022-09-28T12:07:24.716Z,15.90
2022-09-28T12:10:02.734Z,15.82
2022-09-28T12:12:39.961Z,15.80
2022-09-28T12:15:20.688Z,15.78
2022-09-28T12:17:57.199Z,15.64
2022-09-28T12:20:33.773Z,15.55
2022-09-28T12:23:14.789Z,15.47
2022-09-28T12:25:50.990Z,15.50
2022-09-28T12:28:32.904Z,15.42
2022-09-28T12:31:14.284Z,15.45
2022-09-28T12:33:50.048Z,15.39
2022-09-28T12:36:35.936Z,15.39
2022-09-28T12:39:31.336Z,15.43
2022-09-28T12:42:29.290Z,15.41
2022-09-28T12:45:18.908Z,15.41
2022-09-28T12:48:13.931Z,15.37
2022-09-28T12:50:57.503Z,15.24
2022-09-28T12:53:46.085Z,15.34
2022-09-28T12:56:30.607Z,15.31
2022-09-28T12:59:16.509Z,15.24
2022-09-28T13:02:04.959Z,15.26
2022-09-28T13:05:00.917Z,15.17
2022-09-28T13:07:45.216Z,15.27
2022-09-28T13:10:24.630Z,15.25
2022-09-28T13:13:13.136Z,15.25
2022-09-28T13:15:53.477Z,15.20
2022-09-28T13:18:34.886Z,15.21
2022-09-28T13:21:20.018Z,15.16
2022-09-28T13:23:51.559Z,15.15
2022-09-28T13:26:29.871Z,15.14
2022-09-28T13:29:06.102Z,15.05
2022-09-28T13:31:43.977Z,15.10
2022-09-28T13:34:20.642Z,14.96
2022-09-28T13:37:21.803Z,14.66
2022-09-28T13:39:56.713Z,14.59
2022-09-28T13:42:46.439Z,14.57
2022-09-28T13:45:36.265Z,14.52
2022-09-28T13:48:15.780Z,14.51
2022-09-28T13:51:20.459Z,14.39
2022-09-28T13:54:09.676Z,14.20
2022-09-28T13:56:52.060Z,14.02
2022-09-28T13:59:28.244Z,14.09
2022-09-28T14:02:07.285Z,13.98
2022-09-28T14:04:58.602Z,13.86
2022-09-28T14:08:12.938Z,13.76
2022-09-28T14:10:52.803Z,13.54
2022-09-28T14:14:01.638Z,13.33
2022-09-28T14:16:35.216Z,13.40
2022-09-28T14:19:09.815Z,13.31
2022-09-28T14:21:58.149Z,13.31
2022-09-28T14:24:45.141Z,13.10
2022-09-28T14:27:34.738Z,13.24
2022-09-28T14:30:20.987Z,13.19
2022-09-28T14:32:58.991Z,13.00
2022-09-28T14:35:42.637Z,12.93
2022-09-28T14:38:37.681Z,12.90
2022-09-28T14:41:13.927Z,12.71
2022-09-28T14:44:08.110Z,12.89
2022-09-28T14:46:45.888Z,12.86
2022-09-28T14:50:00.840Z,12.95
2022-09-28T14:52:51.709Z,13.05
2022-09-28T14:55:32.581Z,13.12
2022-09-28T14:58:07.822Z,13.17
2022-09-28T15:00:44.382Z,13.04
2022-09-28T15:03:17.464Z,13.14
2022-09-28T15:05:50.442Z,13.06
2022-09-28T15:08:23.709Z,13.06
2022-09-28T15:10:56.607Z,13.06
2022-09-28T15:13:30.101Z,13.06
2022-09-28T15:16:08.993Z,13.10
2022-09-28T15:19:02.788Z,13.08
2022-09-28T15:21:38.632Z,13.06
2022-09-28T15:24:32.611Z,12.96
2022-09-28T15:27:19.198Z,13.01
2022-09-28T15:30:00.260Z,13.12
2022-09-28T15:32:33.651Z,13.16
2022-09-28T15:35:20.642Z,13.18
2022-09-28T15:37:54.398Z,13.20
2022-09-28T15:40:34.536Z,13.19
2022-09-28T15:43:24.929Z,13.27
2022-09-28T15:46:06.903Z,13.18
2022-09-28T15:48:52.175Z,13.11
2022-09-28T15:51:25.726Z,13.07
2022-09-28T15:54:03.063Z,13.07
2022-09-28T15:56:54.626Z,13.08
2022-09-28T15:59:32.903Z,13.04
2022-09-28T16:02:16.268Z,13.05
2022-09-28T16:04:54.434Z,13.05
2022-09-28T16:07:32.284Z,13.05
2022-09-28T16:10:30.434Z,13.07
2022-09-28T16:13:16.407Z,13.10
2022-09-28T16:15:57.986Z,13.12
2022-09-28T16:18:32.489Z,13.12
2022-09-28T16:21:27.322Z,13.09
2022-09-28T16:23:59.422Z,13.09
2022-09-28T16:26:35.037Z,13.09
2022-09-28T16:29:27.150Z,13.11
2022-09-28T16:32:20.590Z,13.02
2022-09-28T16:35:08.665Z,13.11
2022-09-28T16:37:42.860Z,13.12
2022-09-28T16:40:15.734Z,13.08
2022-09-28T16:42:49.429Z,13.12
2022-09-28T16:45:24.354Z,13.13
2022-09-28T16:47:56.641Z,13.13
2022-09-28T16:50:28.888Z,13.05
2022-09-28T16:53:21.528Z,13.13
2022-09-28T16:55:53.558Z,13.13
2022-09-28T16:58:26.548Z,13.13
2022-09-28T17:00:58.685Z,13.14
2022-09-28T17:03:31.784Z,13.13
2022-09-28T17:06:06.218Z,13.12
2022-09-28T17:08:38.871Z,13.12
2022-09-28T17:11:18.030Z,13.12
2022-09-28T17:13:53.715Z,13.12
2022-09-28T17:16:59.952Z,13.12
2022-09-28T17:19:24.283Z,13.12
2022-09-28T17:21:56.399Z,13.12
2022-09-28T17:24:28.621Z,13.10
2022-09-28T17:27:03.404Z,13.08
2022-09-28T17:29:35.682Z,13.06
2022-09-28T17:32:17.965Z,13.04
2022-09-28T17:35:00.894Z,13.02
2022-09-28T17:37:43.233Z,13.04
2022-09-28T17:40:21.241Z,12.95
2022-09-28T17:42:56.173Z,13.03
2022-09-28T17:45:31.471Z,13.05
2022-09-28T17:48:04.047Z,13.05
2022-09-28T17:50:37.182Z,13.04
2022-09-28T17:53:09.173Z,13.02
2022-09-28T17:55:43.167Z,13.02
2022-09-28T17:58:18.329Z,13.02
2022-09-28T18:00:52.484Z,13.03
2022-09-28T18:03:26.625Z,13.03
2022-09-28T18:06:06.622Z,12.95
2022-09-28T18:08:40.433Z,12.95
2022-09-28T18:11:13.504Z,13.03
2022-09-28T18:13:47.431Z,13.01
2022-09-28T18:16:20.569Z,13.01
2022-09-28T18:18:52.903Z,13.01
2022-09-28T18:21:25.311Z,13.02
2022-09-28T18:23:58.044Z,12.99
2022-09-28T18:26:30.366Z,12.89
2022-09-28T18:29:02.866Z,12.98
2022-09-28T18:31:35.799Z,12.95
2022-09-28T18:34:08.424Z,12.90
2022-09-28T18:36:41.497Z,12.94
2022-09-28T18:39:15.643Z,12.94
2022-09-28T18:41:49.516Z,12.93
2022-09-28T18:44:22.078Z,12.91
2022-09-28T18:46:54.927Z,12.91
2022-09-28T18:49:27.327Z,12.90
2022-09-28T18:52:00.055Z,12.89
2022-09-28T18:54:33.518Z,12.87
2022-09-28T18:57:06.009Z,12.78
2022-09-28T18:59:38.527Z,12.81
2022-09-28T19:02:11.821Z,12.87
2022-09-28T19:04:44.221Z,12.84
2022-09-28T19:07:17.198Z,12.83
2022-09-28T19:09:50.832Z,12.81
2022-09-28T19:12:24.198Z,12.71
2022-09-28T19:14:56.525Z,12.80
2022-09-28T19:17:28.743Z,12.81
2022-09-28T19:20:01.725Z,12.83
2022-09-28T19:22:34.336Z,12.83
2022-09-28T19:25:07.022Z,12.84
2022-09-28T19:27:39.242Z,12.84
2022-09-28T19:30:13.263Z,12.84
2022-09-28T19:32:45.855Z,12.77
2022-09-28T19:35:18.287Z,12.83
2022-09-28T19:37:51.660Z,12.82
2022-09-28T19:40:23.866Z,12.80
2022-09-28T19:42:56.290Z,12.79
2022-09-28T19:45:28.288Z,12.78
2022-09-28T19:48:01.923Z,12.78
2022-09-28T19:50:34.163Z,12.76
2022-09-28T19:53:07.520Z,12.76
2022-09-28T19:55:40.941Z,12.78
2022-09-28T19:58:13.144Z,12.74
2022-09-28T20:00:45.258Z,12.72
2022-09-28T20:03:18.679Z,12.73
2022-09-28T20:05:57.194Z,12.71
2022-09-28T20:08:30.502Z,12.60
2022-09-28T20:11:03.334Z,12.72
2022-09-28T20:13:37.566Z,12.75
2022-09-28T20:16:11.662Z,12.75
2022-09-28T20:18:50.176Z,12.72
2022-09-28T20:21:26.756Z,12.67
2022-09-28T20:23:59.263Z,12.69
2022-09-28T20:26:37.395Z,12.56
2022-09-28T20:29:10.040Z,12.69
2022-09-28T20:31:42.757Z,12.66
2022-09-28T20:34:15.297Z,12.64
2022-09-28T20:36:47.325Z,12.66
2022-09-28T20:39:19.955Z,12.62
2022-09-28T20:41:52.127Z,12.58
2022-09-28T20:44:24.580Z,12.57
2022-09-28T20:46:56.877Z,12.51
2022-09-28T20:49:29.589Z,12.55
2022-09-28T20:52:01.677Z,12.57
2022-09-28T20:54:34.168Z,12.50
2022-09-28T20:57:17.672Z,12.47
2022-09-28T20:59:54.566Z,12.49
2022-09-28T21:02:27.313Z,12.51
2022-09-28T21:04:59.654Z,12.59
2022-09-28T21:07:32.145Z,12.54
2022-09-28T21:10:04.894Z,12.47
2022-09-28T21:12:39.148Z,12.46
2022-09-28T21:15:12.656Z,12.46
2022-09-28T21:17:44.580Z,12.26
2022-09-28T21:20:17.159Z,12.41
2022-09-28T21:22:49.273Z,12.32
2022-09-28T21:25:21.290Z,12.33
2022-09-28T21:27:54.757Z,12.38
2022-09-28T21:30:26.899Z,12.35
2022-09-28T21:33:01.419Z,12.28
2022-09-28T21:35:35.352Z,12.31
2022-09-28T21:38:07.460Z,12.31
2022-09-28T21:40:39.989Z,12.33
2022-09-28T21:43:12.614Z,12.33
2022-09-28T21:45:45.200Z,12.35
2022-09-28T21:48:17.323Z,12.37
2022-09-28T21:50:58.232Z,12.36
2022-09-28T21:53:32.425Z,12.35
2022-09-28T21:56:07.016Z,12.43
2022-09-28T21:58:40.287Z,12.43
2022-09-28T22:01:14.856Z,12.38
2022-09-28T22:03:46.717Z,12.34
2022-09-28T22:06:20.841Z,12.23
2022-09-28T22:08:53.159Z,12.32
2022-09-28T22:11:27.514Z,12.26
2022-09-28T22:14:01.000Z,12.26
2022-09-28T22:16:33.777Z,12.25
2022-09-28T22:19:05.904Z,12.23
2022-09-28T22:21:39.106Z,12.21
2022-09-28T22:24:12.353Z,12.20
2022-09-28T22:26:44.439Z,12.31
2022-09-28T22:29:17.686Z,12.32
2022-09-28T22:31:49.873Z,12.33
2022-09-28T22:34:22.236Z,12.27
2022-09-28T22:36:54.687Z,12.21
2022-09-28T22:39:27.155Z,12.09
2022-09-28T22:41:59.931Z,12.09
2022-09-28T22:44:32.102Z,12.19
2022-09-28T22:47:04.496Z,12.13
2022-09-28T22:49:36.656Z,12.10
2022-09-28T22:52:08.803Z,12.06
2022-09-28T22:54:41.137Z,12.03
2022-09-28T22:57:13.205Z,12.00
2022-09-28T22:59:45.470Z,12.01
2022-09-28T23:02:17.426Z,11.90
2022-09-28T23:04:49.576Z,12.01
2022-09-28T23:07:21.713Z,11.98
2022-09-28T23:09:53.978Z,12.00
2022-09-28T23:12:27.210Z,12.04
2022-09-28T23:14:59.442Z,12.02
2022-09-28T23:17:31.630Z,12.03
2022-09-28T23:20:04.306Z,12.06
2022-09-28T23:22:37.017Z,12.08
2022-09-28T23:25:10.477Z,12.10
2022-09-28T23:27:45.408Z,12.12
2022-09-28T23:30:19.382Z,12.11
2022-09-28T23:32:57.034Z,12.14
2022-09-28T23:35:29.088Z,12.12
2022-09-28T23:38:02.340Z,12.13
2022-09-28T23:40:34.584Z,12.10
2022-09-28T23:43:07.014Z,11.99
2022-09-28T23:45:39.307Z,12.09
2022-09-28T23:48:15.186Z,12.16
2022-09-28T23:50:47.425Z,12.16
2022-09-28T23:53:19.927Z,11.92
2022-09-28T23:55:51.974Z,12.20
2022-09-28T23:58:24.504Z,12.20
